createdAt,value
2018-08-20T00:02:34.561Z,4.60
2018-08-20T00:07:37.537Z,5.03
2018-08-20T00:12:40.505Z,4.40
2018-08-20T00:17:43.564Z,5.17
2018-08-20T00:22:46.533Z,4.60
2018-08-20T00:27:49.497Z,4.37
2018-08-20T00:32:55.526Z,4.80
2018-08-20T00:37:58.505Z,4.50
2018-08-20T00:43:01.489Z,4.43
2018-08-20T00:48:04.458Z,4.63
2018-08-20T00:53:07.430Z,4.13
2018-08-20T00:58:10.400Z,5.03
2018-08-20T01:03:13.382Z,4.57
2018-08-20T01:08:16.353Z,4.63
2018-08-20T01:13:19.321Z,4.30
2018-08-20T01:18:22.372Z,4.60
2018-08-20T01:23:25.425Z,4.73
2018-08-20T01:28:28.541Z,4.90
2018-08-20T01:33:31.578Z,4.13
2018-08-20T01:38:34.583Z,5.23
2018-08-20T01:43:37.583Z,4.97
2018-08-20T01:48:40.570Z,4.73
2018-08-20T01:53:43.613Z,4.73
2018-08-20T01:58:46.618Z,4.73
2018-08-20T02:03:49.618Z,4.93
2018-08-20T02:08:53.304Z,4.70
2018-08-20T02:13:57.370Z,5.60
2018-08-20T02:19:00.514Z,5.20
2018-08-20T02:24:03.514Z,5.30
2018-08-20T02:29:06.530Z,5.33
2018-08-20T02:34:09.517Z,5.87
2018-08-20T02:39:13.982Z,5.53
2018-08-20T02:44:16.978Z,5.90
2018-08-20T02:49:20.101Z,6.13
2018-08-20T02:54:23.161Z,5.47
2018-08-20T02:59:26.211Z,5.93
2018-08-20T03:04:29.285Z,5.70
2018-08-20T03:09:32.278Z,6.30
2018-08-20T03:14:35.278Z,6.30
2018-08-20T03:19:38.278Z,6.10
2018-08-20T03:24:41.274Z,6.23
2018-08-20T03:29:44.274Z,5.93
2018-08-20T03:34:47.359Z,6.70
2018-08-20T03:39:50.349Z,6.20
2018-08-20T03:44:53.545Z,5.83
2018-08-20T03:49:56.689Z,6.53
2018-08-20T03:54:59.763Z,6.60
2018-08-20T04:00:02.765Z,6.33
2018-08-20T04:05:05.783Z,6.00
2018-08-20T04:10:08.754Z,6.50
2018-08-20T04:15:11.749Z,6.63
2018-08-20T04:20:14.774Z,6.40
2018-08-20T04:25:17.804Z,6.63
2018-08-20T04:30:20.802Z,6.53
2018-08-20T04:35:24.327Z,6.87
2018-08-20T04:40:27.426Z,6.90
2018-08-20T04:45:30.430Z,7.20
2018-08-20T04:50:33.516Z,6.87
2018-08-20T04:55:36.522Z,7.73
2018-08-20T05:00:39.527Z,7.10
2018-08-20T05:05:42.631Z,7.57
2018-08-20T05:10:45.621Z,6.90
2018-08-20T05:15:48.726Z,7.83
2018-08-20T05:20:51.732Z,7.27
2018-08-20T05:25:54.928Z,7.47
2018-08-20T05:30:57.949Z,6.80
2018-08-20T05:36:01.049Z,7.37
2018-08-20T05:41:04.090Z,6.80
2018-08-20T05:46:07.077Z,6.60
2018-08-20T05:51:10.071Z,7.07
2018-08-20T05:56:13.104Z,6.70
2018-08-20T06:01:16.103Z,7.23
2018-08-20T06:06:19.093Z,7.37
2018-08-20T06:11:22.107Z,7.23
2018-08-20T06:16:25.366Z,7.23
2018-08-20T06:21:28.435Z,8.63
2018-08-20T06:26:31.471Z,7.73
2018-08-20T06:31:34.457Z,7.67
2018-08-20T06:36:37.509Z,7.77
2018-08-20T06:41:40.467Z,8.37
2018-08-20T06:46:44.487Z,6.93
2018-08-20T06:51:47.494Z,7.50
2018-08-20T06:56:50.484Z,7.27
2018-08-20T07:01:54.276Z,8.00
2018-08-20T07:06:57.412Z,7.50
2018-08-20T07:12:00.499Z,7.87
2018-08-20T07:17:03.515Z,7.80
2018-08-20T07:22:06.606Z,7.33
2018-08-20T07:27:09.594Z,7.90
2018-08-20T07:32:13.595Z,7.60
2018-08-20T07:37:17.362Z,7.07
2018-08-20T07:42:20.408Z,7.37
2018-08-20T07:47:23.999Z,7.53
2018-08-20T07:52:27.097Z,7.47
2018-08-20T07:57:30.119Z,6.53
2018-08-20T08:02:33.122Z,7.10
2018-08-20T08:07:36.127Z,6.97
2018-08-20T08:12:39.259Z,6.60
2018-08-20T08:17:43.491Z,6.07
2018-08-20T08:22:46.650Z,5.93
2018-08-20T08:27:49.659Z,5.63
2018-08-20T08:32:52.663Z,5.87
2018-08-20T08:37:55.737Z,5.60
2018-08-20T08:42:58.700Z,5.47
2018-08-20T08:48:01.726Z,5.73
2018-08-20T08:53:04.794Z,5.30
2018-08-20T08:58:07.791Z,5.40
2018-08-20T09:03:10.779Z,5.73
2018-08-20T09:08:14.042Z,6.00
2018-08-20T09:13:17.202Z,5.80
2018-08-20T09:18:20.216Z,5.33
2018-08-20T09:23:23.283Z,5.43
2018-08-20T09:28:26.398Z,5.30
2018-08-20T09:33:29.486Z,5.50
2018-08-20T09:38:32.527Z,5.53
2018-08-20T09:43:35.512Z,5.20
2018-08-20T09:48:38.503Z,5.03
2018-08-20T09:53:41.494Z,4.90
2018-08-20T09:58:44.539Z,4.73
2018-08-20T10:03:47.573Z,4.30
2018-08-20T10:08:50.559Z,3.53
2018-08-20T10:13:53.694Z,3.80
2018-08-20T10:18:56.831Z,3.80
2018-08-20T10:23:59.905Z,3.50
2018-08-20T10:29:02.906Z,3.53
2018-08-20T10:34:05.902Z,3.17
2018-08-20T10:39:10.178Z,3.77
2018-08-20T10:44:13.190Z,3.00
2018-08-20T10:49:16.179Z,3.23
2018-08-20T10:54:19.166Z,3.57
2018-08-20T10:59:22.175Z,3.40
2018-08-20T11:04:25.938Z,3.97
2018-08-20T11:09:28.954Z,3.80
2018-08-20T11:14:32.006Z,3.80
2018-08-20T11:19:35.002Z,3.53
2018-08-20T11:24:38.061Z,3.20
2018-08-20T11:29:41.057Z,2.27
2018-08-20T11:34:44.215Z,2.53
2018-08-20T11:39:47.222Z,2.40
2018-08-20T11:44:50.207Z,1.83
2018-08-20T11:49:53.281Z,2.07
2018-08-20T11:54:56.294Z,1.90
2018-08-20T11:59:59.307Z,1.67
2018-08-20T12:05:02.323Z,2.40
2018-08-20T12:10:06.730Z,2.27
2018-08-20T12:15:11.182Z,2.23
2018-08-20T12:20:14.254Z,1.93
2018-08-20T12:25:17.402Z,1.83
2018-08-20T12:30:20.406Z,1.90
2018-08-20T12:35:23.522Z,2.20
2018-08-20T12:40:26.836Z,1.97
2018-08-20T12:45:30.218Z,1.93
2018-08-20T12:50:33.202Z,2.30
2018-08-20T12:55:36.214Z,2.57
2018-08-20T13:00:39.305Z,2.90
2018-08-20T13:05:42.213Z,2.63
2018-08-20T13:10:45.258Z,2.60
2018-08-20T13:15:48.304Z,2.70
2018-08-20T13:20:51.278Z,3.10
2018-08-20T13:25:54.291Z,3.00
2018-08-20T13:30:57.404Z,3.10
2018-08-20T13:36:00.402Z,2.80
2018-08-20T13:41:03.394Z,2.73
2018-08-20T13:46:06.394Z,2.20
2018-08-20T13:51:09.390Z,2.20
2018-08-20T13:56:12.394Z,2.07
2018-08-20T14:01:15.506Z,2.60
2018-08-20T14:06:18.595Z,1.90
2018-08-20T14:11:21.582Z,2.40
2018-08-20T14:16:24.763Z,1.80
2018-08-20T14:21:27.873Z,1.83
2018-08-20T14:26:30.905Z,1.60
2018-08-20T14:31:33.893Z,1.80
2018-08-20T14:36:36.985Z,1.63
2018-08-20T14:41:39.901Z,1.90
2018-08-20T14:46:42.914Z,1.90
2018-08-20T14:51:45.943Z,2.10
2018-08-20T14:56:48.935Z,2.07
2018-08-20T15:01:51.975Z,1.83
2018-08-20T15:06:59.806Z,1.43
2018-08-20T15:12:02.827Z,1.63
2018-08-20T15:17:05.815Z,1.87
2018-08-20T15:22:08.790Z,1.77
2018-08-20T15:27:11.794Z,1.90
2018-08-20T15:32:14.846Z,1.50
2018-08-20T15:37:17.869Z,1.90
2018-08-20T15:42:20.853Z,1.70
2018-08-20T15:47:23.893Z,1.50
2018-08-20T15:52:27.012Z,1.53
2018-08-20T15:57:30.064Z,1.80
2018-08-20T16:02:33.054Z,1.90
2018-08-20T16:07:36.053Z,1.67
2018-08-20T16:12:39.435Z,1.90
2018-08-20T16:17:42.437Z,1.83
2018-08-20T16:22:45.432Z,1.80
2018-08-20T16:27:48.427Z,1.73
2018-08-20T16:32:51.429Z,1.77
2018-08-20T16:37:54.465Z,1.90
2018-08-20T16:42:57.711Z,1.53
2018-08-20T16:48:00.710Z,1.67
2018-08-20T16:53:03.770Z,1.47
2018-08-20T16:58:06.799Z,1.30
2018-08-20T17:03:10.766Z,1.60
2018-08-20T17:08:18.149Z,1.20
2018-08-20T17:13:21.137Z,1.30
2018-08-20T17:18:24.159Z,1.53
2018-08-20T17:23:27.342Z,1.70
2018-08-20T17:28:30.339Z,1.50
2018-08-20T17:33:34.634Z,1.63
2018-08-20T17:38:37.610Z,1.37
2018-08-20T17:43:40.599Z,1.67
2018-08-20T17:48:43.626Z,1.50
2018-08-20T17:53:54.677Z,1.80
2018-08-20T17:59:03.170Z,1.87
2018-08-20T18:04:06.418Z,1.97
2018-08-20T18:09:09.403Z,1.87
2018-08-20T18:14:12.459Z,1.77
2018-08-20T18:19:15.905Z,2.17
2018-08-20T18:24:19.964Z,2.30
2018-08-20T18:29:23.050Z,2.10
2018-08-20T18:34:26.199Z,2.03
2018-08-20T18:39:29.254Z,2.00
2018-08-20T18:44:32.242Z,2.30
2018-08-20T18:49:44.075Z,2.03
2018-08-20T18:54:49.159Z,2.10
2018-08-20T18:59:52.446Z,2.03
2018-08-20T19:04:55.692Z,2.10
2018-08-20T19:09:58.724Z,2.47
2018-08-20T19:15:12.708Z,2.00
2018-08-20T19:20:15.734Z,2.43
2018-08-20T19:25:18.740Z,1.93
2018-08-20T19:30:24.783Z,2.10
2018-08-20T19:35:27.799Z,2.27
2018-08-20T19:40:31.070Z,2.20
2018-08-20T19:45:38.416Z,1.97
2018-08-20T19:50:41.465Z,2.30
2018-08-20T19:55:44.569Z,2.07
2018-08-20T20:01:01.065Z,1.97
2018-08-20T20:06:04.103Z,2.07
2018-08-20T20:11:12.044Z,1.73
2018-08-20T20:16:15.055Z,1.83
2018-08-20T20:21:18.441Z,1.10
2018-08-20T20:26:21.727Z,1.20
2018-08-20T20:31:24.815Z,1.03
2018-08-20T20:36:29.223Z,1.10
2018-08-20T20:41:32.213Z,0.70
2018-08-20T20:46:35.229Z,0.70
2018-08-20T20:51:38.244Z,1.00
2018-08-20T20:56:41.358Z,0.87
2018-08-20T21:01:44.357Z,0.63
2018-08-20T21:06:47.349Z,0.87
2018-08-20T21:11:50.351Z,0.80
2018-08-20T21:16:53.517Z,0.83
2018-08-20T21:21:56.566Z,0.80
2018-08-20T21:26:59.566Z,0.90
2018-08-20T21:32:02.592Z,0.90
2018-08-20T21:37:05.598Z,0.70
2018-08-20T21:42:08.610Z,0.80
2018-08-20T21:47:29.482Z,0.80
2018-08-20T21:52:32.486Z,0.93
2018-08-20T21:57:36.731Z,0.80
2018-08-20T22:02:39.760Z,0.80
2018-08-20T22:07:43.070Z,0.97
2018-08-20T22:12:46.090Z,0.90
2018-08-20T22:17:49.129Z,0.83
2018-08-20T22:22:52.301Z,0.80
2018-08-20T22:27:56.374Z,1.10
2018-08-20T22:32:59.538Z,0.87
2018-08-20T22:38:03.374Z,0.80
2018-08-20T22:43:06.391Z,1.17
2018-08-20T22:48:10.123Z,1.00
2018-08-20T22:53:14.054Z,0.93
2018-08-20T22:58:17.075Z,0.87
2018-08-20T23:03:20.079Z,0.93
2018-08-20T23:08:23.311Z,1.20
2018-08-20T23:13:26.350Z,1.00
2018-08-20T23:18:29.435Z,0.60
2018-08-20T23:23:34.662Z,0.77
2018-08-20T23:28:39.798Z,0.90
2018-08-20T23:33:42.818Z,0.80
2018-08-20T23:38:45.851Z,1.00
2018-08-20T23:43:53.165Z,1.00
2018-08-20T23:48:56.274Z,1.30
2018-08-20T23:53:59.281Z,1.00
2018-08-20T23:59:02.278Z,0.87
